createdAt,value
2016-06-10T00:00:25.005Z,66.99
2016-06-10T00:01:25.039Z,67.18
2016-06-10T00:02:25.089Z,67.09
2016-06-10T00:03:25.123Z,67.72
2016-06-10T00:04:25.157Z,67.15
2016-06-10T00:05:25.255Z,67.54
2016-06-10T00:06:25.242Z,68.05
2016-06-10T00:07:25.136Z,67.72
2016-06-10T00:08:25.311Z,68.01
2016-06-10T00:09:25.408Z,67.72
2016-06-10T00:10:25.395Z,67.82
2016-06-10T00:11:25.445Z,68.11
2016-06-10T00:12:25.479Z,67.72
2016-06-10T00:13:25.529Z,68.3
2016-06-10T00:14:25.563Z,68.4
2016-06-10T00:15:25.598Z,68.59
2016-06-10T00:16:25.663Z,69.17
2016-06-10T00:17:25.698Z,68.78
2016-06-10T00:18:25.733Z,68.78
2016-06-10T00:19:25.766Z,68.59
2016-06-10T00:20:25.831Z,68.59
2016-06-10T00:21:25.851Z,68.4
2016-06-10T00:22:25.885Z,68.49
2016-06-10T00:23:25.965Z,68.59
2016-06-10T00:24:26.016Z,68.49
2016-06-10T00:25:26.004Z,68.49
2016-06-10T00:26:26.054Z,68.78
2016-06-10T00:27:26.135Z,68.78
2016-06-10T00:28:26.138Z,68.87
2016-06-10T00:29:26.172Z,69.26
2016-06-10T00:30:26.222Z,69.35
2016-06-10T00:31:26.303Z,69.17
2016-06-10T00:32:26.306Z,69.17
2016-06-10T00:33:26.340Z,69.26
2016-06-10T00:34:26.391Z,69.64
2016-06-10T00:35:26.410Z,69.74
2016-06-10T00:36:27.006Z,70.12
2016-06-10T00:37:26.509Z,70.03
2016-06-10T00:38:26.559Z,70.03
2016-06-10T00:39:26.594Z,70.21
2016-06-10T00:40:27.425Z,70.6
2016-06-10T00:41:26.662Z,70.37
2016-06-10T00:42:26.743Z,70.12
2016-06-10T00:43:26.747Z,70.09
2016-06-10T00:44:26.796Z,70.5
2016-06-10T00:45:26.830Z,70.76
2016-06-10T00:46:26.866Z,70.5
2016-06-10T00:47:26.994Z,71.42
2016-06-10T00:48:26.950Z,71.23
2016-06-10T00:49:26.983Z,71.33
2016-06-10T00:50:27.049Z,71.17
2016-06-10T00:51:27.068Z,71.33
2016-06-10T00:52:27.149Z,71.62
2016-06-10T00:53:27.168Z,71.23
2016-06-10T00:54:27.186Z,71.52
2016-06-10T00:55:27.080Z,71.33
2016-06-10T00:56:27.286Z,71.56
2016-06-10T00:57:27.305Z,72.19
2016-06-10T00:58:27.370Z,72.19
2016-06-10T00:59:27.390Z,72.38
2016-06-10T01:00:27.455Z,72.09
2016-06-10T01:01:27.474Z,72.38
2016-06-10T01:02:27.508Z,72.19
2016-06-10T01:03:27.558Z,72.29
2016-06-10T01:04:27.592Z,72.58
2016-06-10T01:05:27.642Z,72.96
2016-06-10T01:06:27.677Z,72.38
2016-06-10T01:07:27.726Z,73.05
2016-06-10T01:08:27.761Z,73.34
2016-06-10T01:09:29.186Z,73.05
2016-06-10T01:10:27.846Z,73.05
2016-06-10T01:11:27.896Z,73.05
2016-06-10T01:12:27.914Z,72.96
2016-06-10T01:13:27.964Z,73.34
2016-06-10T01:14:28.014Z,73.15
2016-06-10T01:15:28.033Z,73.82
2016-06-10T01:16:28.083Z,72.86
2016-06-10T01:17:28.117Z,73.54
2016-06-10T01:18:28.214Z,73.15
2016-06-10T01:19:28.201Z,73.24
2016-06-10T01:20:28.096Z,73.34
2016-06-10T01:21:28.285Z,73.91
2016-06-10T01:22:28.351Z,73.91
2016-06-10T01:23:28.369Z,73.54
2016-06-10T01:24:28.404Z,74.49
2016-06-10T01:25:28.453Z,74.11
2016-06-10T01:26:28.504Z,74.49
2016-06-10T01:27:28.522Z,74.11
2016-06-10T01:28:28.573Z,74.2
2016-06-10T01:29:28.606Z,74.77
2016-06-10T01:30:28.641Z,74.65
2016-06-10T01:31:28.690Z,74.2
2016-06-10T01:32:28.772Z,74.74
2016-06-10T01:33:28.775Z,75.02
2016-06-10T01:34:28.809Z,74.93
2016-06-10T01:35:28.859Z,75.12
2016-06-10T01:36:28.941Z,74.93
2016-06-10T01:37:29.193Z,75.22
2016-06-10T01:38:29.790Z,75.31
2016-06-10T01:39:29.013Z,75.22
2016-06-10T01:40:29.125Z,75.12
2016-06-10T01:41:29.096Z,75.31
2016-06-10T01:42:29.131Z,75.6
2016-06-10T01:43:29.166Z,75.51
2016-06-10T01:44:29.215Z,75.31
2016-06-10T01:45:29.265Z,75.7
2016-06-10T01:46:29.284Z,76.08
2016-06-10T01:47:29.381Z,75.79
2016-06-10T01:48:29.384Z,75.6
2016-06-10T01:49:29.418Z,76.08
2016-06-10T01:50:29.468Z,76.27
2016-06-10T01:51:29.487Z,76.56
2016-06-10T01:52:29.537Z,76.18
2016-06-10T01:53:29.571Z,75.98
2016-06-10T01:54:29.637Z,76.08
2016-06-10T01:55:30.265Z,76.56
2016-06-10T01:56:29.705Z,76.46
2016-06-10T01:57:29.755Z,76.56
2016-06-10T01:58:29.774Z,76.37
2016-06-10T01:59:29.965Z,76.84
2016-06-10T02:00:30.780Z,76.18
2016-06-10T02:01:29.908Z,76.65
2016-06-10T02:02:29.927Z,76.65
2016-06-10T02:03:29.977Z,76.94
2016-06-10T02:04:30.011Z,77.04
2016-06-10T02:05:30.062Z,77.23
2016-06-10T02:06:31.064Z,77.04
2016-06-10T02:07:30.130Z,77.04
2016-06-10T02:08:30.180Z,77.13
2016-06-10T02:09:30.229Z,77.51
2016-06-10T02:10:30.108Z,77.38
2016-06-10T02:11:30.938Z,77.51
2016-06-10T02:12:30.380Z,77.7
2016-06-10T02:13:30.383Z,77.61
2016-06-10T02:14:30.417Z,77.9
2016-06-10T02:15:30.467Z,77.57
2016-06-10T02:16:30.517Z,77.7
2016-06-10T02:17:30.536Z,77.67
2016-06-10T02:18:30.585Z,77.95
2016-06-10T02:19:30.635Z,77.86
2016-06-10T02:20:30.669Z,78.05
2016-06-10T02:21:30.703Z,77.76
2016-06-10T02:22:30.786Z,77.86
2016-06-10T02:23:30.788Z,78.24
2016-06-10T02:24:30.823Z,78.24
2016-06-10T02:25:30.857Z,78.24
2016-06-10T02:26:30.938Z,78.28
2016-06-10T02:27:30.941Z,78.53
2016-06-10T02:28:30.975Z,78.43
2016-06-10T02:29:31.025Z,78.14
2016-06-10T02:30:31.061Z,78.05
2016-06-10T02:31:31.094Z,78.14
2016-06-10T02:32:31.144Z,78.43
2016-06-10T02:33:31.179Z,78.05
2016-06-10T02:34:31.213Z,78.47
2016-06-10T02:35:31.262Z,78.43
2016-06-10T02:36:31.296Z,78.43
2016-06-10T02:37:31.379Z,78.43
2016-06-10T02:38:31.451Z,77.95
2016-06-10T02:39:31.507Z,78.14
2016-06-10T02:40:32.001Z,77.76
2016-06-10T02:41:31.682Z,78.43
2016-06-10T02:42:31.729Z,78.43
2016-06-10T02:43:31.776Z,78.34
2016-06-10T02:44:31.840Z,78.63
2016-06-10T02:45:31.888Z,78.72
2016-06-10T02:46:31.952Z,78.43
2016-06-10T02:47:31.996Z,78.34
2016-06-10T02:48:32.082Z,78.05
2016-06-10T02:49:32.091Z,78.53
2016-06-10T02:50:32.129Z,78.81
2016-06-10T02:51:32.168Z,78.53
2016-06-10T02:52:32.237Z,78.91
2016-06-10T02:53:32.257Z,78.43
2016-06-10T02:54:32.294Z,78.53
2016-06-10T02:55:32.361Z,79.1
2016-06-10T02:56:32.382Z,78.43
2016-06-10T02:57:32.418Z,78.81
2016-06-10T02:58:32.468Z,78.81
2016-06-10T02:59:32.503Z,78.53
2016-06-10T03:00:32.554Z,78.72
2016-06-10T03:01:32.589Z,78.63
2016-06-10T03:02:32.671Z,78.72
2016-06-10T03:03:32.673Z,78.43
2016-06-10T03:04:32.708Z,78.53
2016-06-10T03:05:32.758Z,79
2016-06-10T03:06:32.807Z,78.91
2016-06-10T03:07:32.827Z,78.91
2016-06-10T03:08:32.877Z,78.81
2016-06-10T03:09:32.927Z,78.91
2016-06-10T03:10:33.570Z,78.53
2016-06-10T03:11:32.995Z,78.81
2016-06-10T03:12:33.029Z,78.63
2016-06-10T03:13:33.095Z,78.81
2016-06-10T03:14:33.115Z,78.91
2016-06-10T03:15:33.148Z,78.81
2016-06-10T03:16:33.198Z,78.72
2016-06-10T03:17:33.233Z,78.72
2016-06-10T03:18:33.282Z,78.81
2016-06-10T03:19:33.332Z,78.91
2016-06-10T03:20:33.350Z,78.43
2016-06-10T03:21:33.401Z,78.14
2016-06-10T03:22:33.435Z,78.43
2016-06-10T03:23:33.484Z,78.43
2016-06-10T03:24:33.551Z,78.34
2016-06-10T03:25:33.788Z,78.34
2016-06-10T03:26:33.588Z,78.43
2016-06-10T03:27:33.622Z,78.63
2016-06-10T03:28:33.672Z,78.43
2016-06-10T03:29:33.706Z,78.53
2016-06-10T03:30:33.757Z,78.43
2016-06-10T03:31:33.806Z,78.24
2016-06-10T03:32:33.840Z,78.24
2016-06-10T03:33:33.876Z,78.43
2016-06-10T03:34:33.909Z,78.34
2016-06-10T03:35:33.974Z,78.43
2016-06-10T03:36:33.994Z,78.14
2016-06-10T03:37:34.028Z,78.63
2016-06-10T03:38:34.109Z,78.38
2016-06-10T03:39:34.128Z,78.57
2016-06-10T03:40:34.350Z,78.24
2016-06-10T03:41:34.197Z,78.38
2016-06-10T03:42:34.263Z,78.09
2016-06-10T03:43:34.281Z,78.43
2016-06-10T03:44:34.316Z,78.19
2016-06-10T03:45:34.350Z,78.19
2016-06-10T03:46:34.399Z,78.38
2016-06-10T03:47:34.434Z,78.43
2016-06-10T03:48:34.469Z,78.38
2016-06-10T03:49:34.518Z,78.19
2016-06-10T03:50:34.553Z,78.24
2016-06-10T03:51:34.603Z,78.76
2016-06-10T03:52:34.637Z,78.91
2016-06-10T03:53:34.687Z,79.05
2016-06-10T03:54:34.721Z,78.66
2016-06-10T03:55:35.193Z,78.95
2016-06-10T03:56:34.790Z,79.14
2016-06-10T03:57:34.872Z,78.38
2016-06-10T03:58:34.875Z,78.38
2016-06-10T03:59:34.923Z,78.66
2016-06-10T04:00:34.990Z,78.19
2016-06-10T04:01:35.009Z,78.38
2016-06-10T04:02:35.026Z,78.47
2016-06-10T04:03:35.077Z,78.28
2016-06-10T04:04:35.143Z,78.28
2016-06-10T04:05:35.161Z,77.99
2016-06-10T04:06:35.195Z,77.51
2016-06-10T04:07:35.230Z,77.7
2016-06-10T04:08:35.326Z,77.42
2016-06-10T04:09:35.548Z,76.94
2016-06-10T04:10:35.582Z,77.26
2016-06-10T04:11:36.367Z,76.79
2016-06-10T04:12:35.683Z,76.69
2016-06-10T04:13:35.702Z,76.4
2016-06-10T04:14:35.610Z,76.4
2016-06-10T04:15:35.833Z,76.31
2016-06-10T04:16:35.835Z,76.5
2016-06-10T04:17:35.854Z,76.4
2016-06-10T04:18:35.936Z,76.12
2016-06-10T04:19:35.954Z,75.64
2016-06-10T04:20:36.004Z,76.02
2016-06-10T04:21:36.367Z,75.93
2016-06-10T04:22:36.307Z,75.83
2016-06-10T04:23:36.139Z,75.26
2016-06-10T04:24:36.157Z,75.54
2016-06-10T04:25:36.536Z,75.54
2016-06-10T04:26:36.242Z,74.97
2016-06-10T04:27:36.089Z,75.35
2016-06-10T04:28:36.263Z,75.54
2016-06-10T04:29:36.360Z,75.64
2016-06-10T04:30:36.441Z,75.45
2016-06-10T04:31:36.210Z,75.2
2016-06-10T04:32:36.260Z,75.2
2016-06-10T04:33:36.294Z,74.97
2016-06-10T04:34:36.328Z,75.2
2016-06-10T04:35:36.378Z,74.52
2016-06-10T04:36:36.412Z,74.82
2016-06-10T04:37:36.447Z,74.62
2016-06-10T04:38:36.528Z,74.82
2016-06-10T04:39:36.531Z,74.82
2016-06-10T04:40:36.581Z,74.82
2016-06-10T04:41:36.694Z,75.29
2016-06-10T04:42:36.680Z,74.62
2016-06-10T04:43:36.700Z,74.24
2016-06-10T04:44:36.734Z,74.43
2016-06-10T04:45:36.815Z,74.33
2016-06-10T04:46:36.818Z,74.15
2016-06-10T04:47:36.853Z,74.72
2016-06-10T04:48:36.918Z,74.33
2016-06-10T04:49:36.984Z,74.52
2016-06-10T04:50:36.987Z,74.05
2016-06-10T04:51:37.021Z,73.76
2016-06-10T04:52:37.072Z,73.86
2016-06-10T04:53:37.230Z,73.95
2016-06-10T04:54:37.187Z,73.57
2016-06-10T04:55:37.658Z,73.19
2016-06-10T04:56:38.115Z,73.86
2016-06-10T04:57:37.274Z,73.86
2016-06-10T04:58:37.152Z,73.38
2016-06-10T04:59:37.452Z,73.47
2016-06-10T05:00:37.393Z,73.57
2016-06-10T05:01:37.443Z,73.19
2016-06-10T05:02:37.478Z,73.19
2016-06-10T05:03:37.527Z,73.41
2016-06-10T05:04:37.561Z,73.7
2016-06-10T05:05:37.611Z,73.13
2016-06-10T05:06:37.630Z,73.03
2016-06-10T05:07:37.773Z,72.36
2016-06-10T05:08:37.714Z,72.45
2016-06-10T05:09:37.968Z,72.36
2016-06-10T05:10:37.814Z,72.36
2016-06-10T05:11:37.879Z,72.45
2016-06-10T05:12:37.914Z,72.84
2016-06-10T05:13:37.917Z,72.45
2016-06-10T05:14:38.076Z,72.45
2016-06-10T05:15:38.001Z,72.45
2016-06-10T05:16:38.051Z,72.8
2016-06-10T05:17:38.101Z,73.19
2016-06-10T05:18:38.135Z,73.13
2016-06-10T05:19:38.186Z,73.09
2016-06-10T05:20:38.205Z,72.99
2016-06-10T05:21:38.254Z,73.09
2016-06-10T05:22:38.304Z,72.8
2016-06-10T05:23:38.323Z,73.28
2016-06-10T05:24:38.998Z,73.09
2016-06-10T05:25:38.423Z,72.9
2016-06-10T05:26:38.707Z,73.57
2016-06-10T05:27:38.632Z,73.28
2016-06-10T05:28:38.541Z,72.99
2016-06-10T05:29:38.575Z,73.66
2016-06-10T05:30:38.750Z,73.66
2016-06-10T05:31:39.097Z,73.19
2016-06-10T05:32:38.959Z,73.86
2016-06-10T05:33:38.744Z,73.76
2016-06-10T05:34:38.795Z,73.86
2016-06-10T05:35:38.813Z,73.95
2016-06-10T05:36:38.879Z,73.76
2016-06-10T05:37:38.913Z,73.95
2016-06-10T05:38:38.994Z,73.95
2016-06-10T05:39:38.997Z,73.47
2016-06-10T05:40:39.031Z,73.28
2016-06-10T05:41:39.112Z,73.47
2016-06-10T05:42:39.115Z,73.86
2016-06-10T05:43:39.151Z,73.47
2016-06-10T05:44:39.543Z,72.99
2016-06-10T05:45:39.249Z,72.99
2016-06-10T05:46:39.268Z,72.99
2016-06-10T05:47:39.318Z,73.19
2016-06-10T05:48:39.228Z,73.09
2016-06-10T05:49:39.387Z,73.19
2016-06-10T05:50:39.437Z,73.32
2016-06-10T05:51:39.486Z,73.03
2016-06-10T05:52:39.521Z,73.22
2016-06-10T05:53:39.556Z,73.03
2016-06-10T05:54:39.590Z,72.55
2016-06-10T05:55:39.655Z,72.36
2016-06-10T05:56:39.690Z,71.98
2016-06-10T05:57:39.724Z,72.17
2016-06-10T05:58:39.759Z,72.17
2016-06-10T05:59:39.809Z,71.59
2016-06-10T06:00:39.858Z,70.48
2016-06-10T06:01:39.892Z,70.09
2016-06-10T06:02:39.958Z,70.19
2016-06-10T06:03:39.977Z,69.52
2016-06-10T06:04:40.012Z,70
2016-06-10T06:05:40.060Z,69.04
2016-06-10T06:06:40.111Z,69.04
2016-06-10T06:07:40.692Z,68.75
2016-06-10T06:08:40.180Z,68.75
2016-06-10T06:09:40.261Z,68.85
2016-06-10T06:10:40.264Z,68.75
2016-06-10T06:11:40.923Z,68.75
2016-06-10T06:12:40.364Z,69.36
2016-06-10T06:13:40.383Z,69.07
2016-06-10T06:14:40.417Z,68.79
2016-06-10T06:15:40.546Z,68.88
2016-06-10T06:16:40.549Z,69.26
2016-06-10T06:17:40.583Z,68.12
2016-06-10T06:18:40.586Z,68.02
2016-06-10T06:19:40.714Z,68.12
2016-06-10T06:20:41.764Z,68.5
2016-06-10T06:21:41.907Z,67.92
2016-06-10T06:22:40.770Z,67.54
2016-06-10T06:23:45.148Z,68.12
2016-06-10T06:24:42.854Z,68.69
2016-06-10T06:25:43.122Z,68.3
2016-06-10T06:26:42.641Z,68.5
2016-06-10T06:27:42.145Z,68.69
2016-06-10T06:28:41.851Z,68.4
2016-06-10T06:29:42.384Z,68.3
2016-06-10T06:30:42.216Z,68.4
2016-06-10T06:31:42.938Z,68.3
2016-06-10T06:32:42.832Z,68.21
2016-06-10T06:33:42.929Z,68.21
2016-06-10T06:34:42.400Z,68.5
2016-06-10T06:35:42.997Z,68.4
2016-06-10T06:36:43.391Z,68.5
2016-06-10T06:37:43.488Z,68.5
2016-06-10T06:38:42.772Z,68.4
2016-06-10T06:39:43.103Z,68.3
2016-06-10T06:40:42.732Z,67.92
2016-06-10T06:41:42.640Z,67.44
2016-06-10T06:42:42.596Z,67.63
2016-06-10T06:43:42.428Z,67.63
2016-06-10T06:44:42.510Z,66.67
2016-06-10T06:45:42.497Z,66.49
2016-06-10T06:46:43.594Z,66
2016-06-10T06:47:43.878Z,66.1
2016-06-10T06:48:43.006Z,66.19
2016-06-10T06:49:42.853Z,66.58
2016-06-10T06:50:43.246Z,66.29
2016-06-10T06:51:52.203Z,66.58
2016-06-10T06:52:42.877Z,66.19
2016-06-10T06:53:42.974Z,65.81
2016-06-10T06:54:43.180Z,66
2016-06-10T06:55:44.464Z,65.52
2016-06-10T06:56:43.140Z,65.14
2016-06-10T06:57:43.878Z,65.05
2016-06-10T06:58:42.959Z,65.43
2016-06-10T06:59:43.742Z,65.23
2016-06-10T07:00:43.980Z,65.91
2016-06-10T07:01:44.108Z,65.91
2016-06-10T07:02:43.861Z,66.29
2016-06-10T07:03:43.849Z,66.64
2016-06-10T07:04:43.697Z,66.55
2016-06-10T07:05:43.792Z,67.02
2016-06-10T07:06:43.280Z,67.12
2016-06-10T07:07:43.299Z,66.93
2016-06-10T07:08:44.099Z,67.02
2016-06-10T07:09:43.790Z,67.22
2016-06-10T07:10:43.964Z,66.93
2016-06-10T07:11:43.905Z,67.02
2016-06-10T07:12:43.799Z,66.64
2016-06-10T07:13:44.427Z,67.41
2016-06-10T07:14:44.398Z,66.55
2016-06-10T07:15:45.198Z,67.02
2016-06-10T07:16:44.858Z,66.64
2016-06-10T07:17:44.564Z,67.12
2016-06-10T07:18:44.348Z,67.12
2016-06-10T07:19:44.523Z,67.06
2016-06-10T07:20:43.730Z,66.64
2016-06-10T07:21:44.482Z,66.35
2016-06-10T07:22:45.501Z,66.45
2016-06-10T07:23:46.863Z,66.64
2016-06-10T07:24:46.211Z,66.67
2016-06-10T07:25:45.042Z,66.77
2016-06-10T07:26:44.732Z,66.67
2016-06-10T07:27:44.876Z,66.67
2016-06-10T07:28:47.988Z,66.58
2016-06-10T07:29:46.663Z,66.19
2016-06-10T07:30:45.089Z,66.23
2016-06-10T07:31:45.185Z,66.03
2016-06-10T07:32:44.610Z,65.84
2016-06-10T07:33:44.832Z,65.75
2016-06-10T07:34:44.834Z,65.65
2016-06-10T07:35:46.181Z,65.56
2016-06-10T07:36:46.200Z,65.56
2016-06-10T07:37:45.876Z,65.56
2016-06-10T07:38:45.801Z,65.46
2016-06-10T07:39:45.772Z,65.56
2016-06-10T07:40:45.603Z,65.46
2016-06-10T07:41:47.497Z,65.46
2016-06-10T07:42:45.859Z,65.84
2016-06-10T07:43:46.567Z,66.03
2016-06-10T07:44:47.772Z,65.94
2016-06-10T07:45:46.540Z,66.23
2016-06-10T07:46:46.168Z,65.46
2016-06-10T07:47:46.140Z,65.56
2016-06-10T07:48:45.722Z,65.56
2016-06-10T07:49:46.052Z,65.2
2016-06-10T07:50:45.869Z,64.72
2016-06-10T07:51:45.996Z,64.92
2016-06-10T07:52:45.311Z,64.56
2016-06-10T07:53:45.347Z,64.76
2016-06-10T07:54:44.850Z,64.22
2016-06-10T07:55:48.462Z,63.83
2016-06-10T07:56:45.215Z,63.18
2016-06-10T07:57:45.110Z,63.18
2016-06-10T07:58:45.018Z,62.61
2016-06-10T07:59:45.052Z,61.77
2016-06-10T08:00:45.212Z,58.24
2016-06-10T08:01:45.481Z,58.44
2016-06-10T08:02:46.452Z,59.01
2016-06-10T08:03:46.862Z,59.2
2016-06-10T08:04:46.162Z,58.56
2016-06-10T08:05:46.727Z,57.21
2016-06-10T08:06:46.480Z,55.96
2016-06-10T08:07:47.390Z,56.32
2016-06-10T08:08:46.955Z,56.22
2016-06-10T08:09:46.911Z,56.8
2016-06-10T08:10:47.383Z,56.51
2016-06-10T08:11:47.433Z,57.47
2016-06-10T08:12:45.406Z,57.64
2016-06-10T08:13:45.424Z,57.64
2016-06-10T08:14:45.598Z,57.8
2016-06-10T08:15:45.571Z,57.99
2016-06-10T08:16:45.543Z,58.18
2016-06-10T08:17:45.607Z,59.24
2016-06-10T08:18:45.642Z,59.82
2016-06-10T08:19:45.677Z,59.15
2016-06-10T08:20:45.726Z,59.44
2016-06-10T08:21:45.776Z,59.63
2016-06-10T08:22:45.920Z,59.63
2016-06-10T08:23:46.110Z,59.63
2016-06-10T08:24:46.567Z,59.27
2016-06-10T08:25:46.038Z,58.79
2016-06-10T08:26:45.994Z,58.22
2016-06-10T08:27:46.091Z,57.83
2016-06-10T08:28:46.922Z,58.4
2016-06-10T08:29:46.878Z,58.22
2016-06-10T08:30:46.585Z,58.12
2016-06-10T08:31:47.167Z,57.76
2016-06-10T08:32:47.216Z,57.95
2016-06-10T08:33:47.844Z,56.99
2016-06-10T08:34:47.706Z,57.18
2016-06-10T08:35:48.288Z,57.67
2016-06-10T08:36:47.588Z,57.6
2016-06-10T08:37:47.888Z,57.12
2016-06-10T08:38:47.781Z,56.25
2016-06-10T08:39:47.363Z,55.67
2016-06-10T08:40:46.850Z,56.35
2016-06-10T08:41:47.526Z,55.96
2016-06-10T08:42:48.028Z,56.25
2016-06-10T08:43:47.234Z,56.44
2016-06-10T08:44:47.862Z,56.15
2016-06-10T08:45:47.068Z,55.96
2016-06-10T08:46:47.119Z,55.19
2016-06-10T08:47:47.606Z,55.38
2016-06-10T08:48:47.625Z,56.03
2016-06-10T08:49:47.847Z,56.22
2016-06-10T08:50:47.475Z,56.32
2016-06-10T08:51:47.118Z,57.25
2016-06-10T08:52:47.871Z,57.73
2016-06-10T08:53:47.640Z,57.6
2016-06-10T08:54:48.206Z,57.9
2016-06-10T08:55:47.834Z,58.09
2016-06-10T08:56:47.461Z,58.12
2016-06-10T08:57:47.747Z,58.4
2016-06-10T08:58:47.609Z,57.92
2016-06-10T08:59:48.346Z,57.83
2016-06-10T09:00:47.740Z,58.5
2016-06-10T09:01:48.134Z,57.76
2016-06-10T09:02:47.918Z,57.86
2016-06-10T09:03:48.593Z,55.96
2016-06-10T09:04:48.065Z,55.93
2016-06-10T09:05:48.459Z,55.87
2016-06-10T09:06:49.181Z,55.67
2016-06-10T09:07:48.683Z,55.96
2016-06-10T09:08:49.030Z,55.31
2016-06-10T09:09:48.626Z,56.18
2016-06-10T09:10:48.223Z,54.25
2016-06-10T09:11:49.398Z,53.19
2016-06-10T09:12:48.870Z,52.81
2016-06-10T09:13:51.108Z,53.29
2016-06-10T09:14:49.252Z,53.87
2016-06-10T09:15:49.410Z,53.7
2016-06-10T09:16:49.773Z,53.03
2016-06-10T09:17:49.651Z,52.35
2016-06-10T09:18:49.279Z,52.73
2016-06-10T09:19:50.048Z,53.03
2016-06-10T09:20:50.254Z,51.97
2016-06-10T09:21:50.445Z,51.87
2016-06-10T09:22:50.166Z,52.64
2016-06-10T09:23:49.405Z,53.41
2016-06-10T09:24:49.064Z,52.93
2016-06-10T09:25:49.223Z,53.41
2016-06-10T09:26:48.601Z,53.34
2016-06-10T09:27:48.495Z,53.05
2016-06-10T09:28:48.934Z,52.4
2016-06-10T09:29:48.970Z,52.4
2016-06-10T09:30:49.738Z,52.69
2016-06-10T09:31:49.710Z,52.4
2016-06-10T09:32:49.730Z,52.11
2016-06-10T09:33:49.029Z,52.43
2016-06-10T09:34:48.985Z,51.95
2016-06-10T09:35:49.003Z,51.97
2016-06-10T09:36:49.084Z,51.78
2016-06-10T09:37:49.103Z,50.91
2016-06-10T09:38:49.153Z,48.97
2016-06-10T09:39:50.079Z,48.11
2016-06-10T09:40:49.254Z,48.79
2016-06-10T09:41:49.757Z,48.97
2016-06-10T09:42:49.978Z,47.81
2016-06-10T09:43:49.388Z,47.94
2016-06-10T09:44:49.438Z,48.42
2016-06-10T09:45:49.534Z,47.74
2016-06-10T09:46:49.537Z,46.68
2016-06-10T09:47:49.556Z,46.7
2016-06-10T09:48:49.607Z,46.7
2016-06-10T09:49:49.657Z,46.03
2016-06-10T09:50:49.737Z,45.64
2016-06-10T09:51:49.897Z,46.03
2016-06-10T09:52:50.041Z,43.32
2016-06-10T09:53:49.841Z,43.9
2016-06-10T09:54:50.344Z,43.32
2016-06-10T09:55:49.940Z,43.88
2016-06-10T09:56:51.006Z,42.07
2016-06-10T09:57:51.634Z,40.98
2016-06-10T09:58:51.121Z,41.66
2016-06-10T09:59:51.187Z,42.72
2016-06-10T10:00:50.346Z,42.82
2016-06-10T10:01:51.130Z,42.82
2016-06-10T10:02:50.461Z,41.97
2016-06-10T10:03:50.293Z,41.39
2016-06-10T10:04:51.453Z,39.04
2016-06-10T10:05:50.393Z,38.85
2016-06-10T10:06:50.427Z,39.43
2016-06-10T10:07:50.524Z,38.18
2016-06-10T10:08:50.527Z,38.06
2016-06-10T10:09:50.561Z,38.35
2016-06-10T10:10:50.643Z,38.74
2016-06-10T10:11:50.536Z,39.32
2016-06-10T10:12:50.711Z,39.61
2016-06-10T10:13:50.589Z,37.67
2016-06-10T10:14:50.811Z,36.32
2016-06-10T10:15:50.690Z,37.48
2016-06-10T10:16:50.895Z,38.64
2016-06-10T10:17:50.945Z,39.11
2016-06-10T10:18:50.823Z,38.93
2016-06-10T10:19:51.030Z,39.22
2016-06-10T10:20:51.064Z,39.03
2016-06-10T10:21:51.129Z,37.67
2016-06-10T10:22:51.164Z,38.25
2016-06-10T10:23:51.058Z,38.54
2016-06-10T10:24:51.264Z,38.06
2016-06-10T10:25:51.329Z,38.66
2016-06-10T10:26:51.645Z,38.56
2016-06-10T10:27:51.241Z,38.76
2016-06-10T10:28:51.448Z,38.76
2016-06-10T10:29:51.529Z,38.37
2016-06-10T10:30:51.516Z,38.83
2016-06-10T10:31:51.566Z,38.64
2016-06-10T10:32:51.647Z,38.45
2016-06-10T10:33:51.667Z,39.03
2016-06-10T10:34:51.701Z,38.93
2016-06-10T10:35:51.798Z,39.32
2016-06-10T10:36:51.832Z,40.57
2016-06-10T10:37:54.554Z,40.77
2016-06-10T10:38:51.729Z,41.05
2016-06-10T10:39:51.935Z,40.96
2016-06-10T10:40:52.001Z,41.35
2016-06-10T10:41:52.020Z,40.67
2016-06-10T10:42:51.929Z,40.67
2016-06-10T10:43:52.134Z,36.44
2016-06-10T10:44:52.201Z,36.32
2016-06-10T10:45:52.219Z,34.29
2016-06-10T10:46:52.268Z,34.29
2016-06-10T10:47:52.146Z,34.76
2016-06-10T10:48:52.196Z,34.95
2016-06-10T10:49:52.403Z,34.47
2016-06-10T10:50:52.437Z,34.28
2016-06-10T10:51:52.503Z,34.76
2016-06-10T10:52:52.381Z,35.34
2016-06-10T10:53:52.587Z,35.24
2016-06-10T10:54:52.637Z,35.53
2016-06-10T10:55:52.688Z,36.61
2016-06-10T10:56:52.769Z,36.52
2016-06-10T10:57:52.772Z,36.24
2016-06-10T10:58:52.900Z,36.16
2016-06-10T10:59:53.777Z,35.99
2016-06-10T11:00:53.546Z,34.94
2016-06-10T11:01:53.080Z,34.69
2016-06-10T11:02:53.193Z,33.75
2016-06-10T11:03:53.071Z,31.74
2016-06-10T11:04:53.309Z,29.36
2016-06-10T11:05:53.202Z,27.54
2016-06-10T11:06:53.236Z,24.56
2016-06-10T11:07:53.286Z,20.09
2016-06-10T11:08:53.352Z,20.51
2016-06-10T11:09:53.402Z,20.14
2016-06-10T11:10:53.468Z,18.98
2016-06-10T11:11:53.580Z,17.83
2016-06-10T11:12:53.568Z,17.46
2016-06-10T11:13:53.617Z,16.4
2016-06-10T11:14:53.682Z,15.23
2016-06-10T11:15:53.749Z,14.18
2016-06-10T11:16:53.830Z,13.7
2016-06-10T11:17:54.786Z,11.84
2016-06-10T11:18:53.898Z,11.55
2016-06-10T11:19:53.964Z,10.78
2016-06-10T11:20:54.046Z,10.68
2016-06-10T11:21:54.112Z,8.22
2016-06-10T11:22:54.145Z,8.42
2016-06-10T11:23:54.243Z,7.73
2016-06-10T11:24:54.260Z,7.73
2016-06-10T11:25:54.311Z,8.43
2016-06-10T11:26:54.392Z,8.03
2016-06-10T11:27:54.989Z,8.64
2016-06-10T11:28:54.492Z,8.54
2016-06-10T11:29:54.541Z,7.55
2016-06-10T11:30:54.607Z,6.96
2016-06-10T11:31:54.657Z,7.15
2016-06-10T11:32:54.723Z,5.57
2016-06-10T11:33:54.788Z,5.36
2016-06-10T11:34:54.838Z,4.97
2016-06-10T11:35:54.904Z,5.56
2016-06-10T11:36:54.953Z,5.26
2016-06-10T11:37:55.066Z,5.66
2016-06-10T11:38:55.085Z,5.76
2016-06-10T11:39:55.151Z,5.46
2016-06-10T11:40:55.247Z,5.57
2016-06-10T11:41:55.265Z,5.77
2016-06-10T11:42:55.316Z,6.16
2016-06-10T11:43:55.397Z,6.56
2016-06-10T11:44:55.532Z,4.97
2016-06-10T11:45:55.606Z,5.66
2016-06-10T11:46:55.711Z,5.66
2016-06-10T11:47:55.800Z,5.36
2016-06-10T11:48:55.910Z,4.97
2016-06-10T11:49:56.100Z,5.66
2016-06-10T11:50:56.086Z,6.25
2016-06-10T11:51:56.182Z,6.95
2016-06-10T11:52:56.199Z,6.95
2016-06-10T11:53:56.274Z,6.95
2016-06-10T11:54:56.345Z,6.76
2016-06-10T11:55:56.431Z,6.86
2016-06-10T11:56:56.518Z,6.67
2016-06-10T11:57:57.323Z,5.87
2016-06-10T11:58:56.643Z,4.68
2016-06-10T11:59:56.834Z,4.38
2016-06-10T12:00:56.745Z,5.08
2016-06-10T12:01:57.439Z,5.08
2016-06-10T12:02:57.209Z,4.48
2016-06-10T12:03:56.917Z,4.78
2016-06-10T12:04:56.982Z,4.08
2016-06-10T12:05:57.064Z,4.38
2016-06-10T12:06:57.114Z,4.19
2016-06-10T12:07:58.243Z,4.08
2016-06-10T12:08:57.262Z,4.68
2016-06-10T12:09:57.312Z,3.99
2016-06-10T12:10:57.362Z,3.88
2016-06-10T12:11:57.429Z,4.58
2016-06-10T12:12:58.182Z,4.48
2016-06-10T12:13:57.545Z,4.78
2016-06-10T12:14:58.594Z,4.58
2016-06-10T12:15:57.676Z,4.28
2016-06-10T12:16:57.756Z,3.99
2016-06-10T12:17:57.807Z,3.49
2016-06-10T12:18:57.873Z,3.39
2016-06-10T12:19:58.016Z,2.99
2016-06-10T12:20:57.988Z,2.49
2016-06-10T12:21:58.522Z,2.59
2016-06-10T12:22:58.229Z,3.19
2016-06-10T12:23:58.186Z,3.09
2016-06-10T12:24:58.486Z,3.28
2016-06-10T12:25:59.050Z,3.19
2016-06-10T12:26:58.428Z,2.48
2016-06-10T12:27:58.588Z,1.79
2016-06-10T12:28:58.340Z,1.29
2016-06-10T12:29:58.563Z,1.78
2016-06-10T12:30:58.644Z,2.08
2016-06-10T12:31:59.521Z,2.48
2016-06-10T12:32:58.743Z,3.27
2016-06-10T12:33:59.216Z,3.17
2016-06-10T12:34:58.906Z,3.96
2016-06-10T12:35:58.925Z,3.56
2016-06-10T12:36:59.990Z,3.86
2016-06-10T12:37:59.103Z,4.46
2016-06-10T12:38:59.247Z,4.36
2016-06-10T12:39:59.499Z,3.57
2016-06-10T12:40:59.221Z,3.17
2016-06-10T12:41:59.552Z,2.58
2016-06-10T12:42:59.447Z,1.98
2016-06-10T12:43:59.872Z,2.28
2016-06-10T12:44:59.484Z,2.58
2016-06-10T12:45:59.565Z,3.08
2016-06-10T12:47:00.287Z,2.58
2016-06-10T12:47:59.868Z,2.88
2016-06-10T12:48:59.793Z,2.98
2016-06-10T12:49:59.796Z,2.28
2016-06-10T12:50:59.847Z,1.29
2016-06-10T12:52:00.802Z,1.39
2016-06-10T12:52:59.993Z,1.89
2016-06-10T12:54:00.027Z,1.49
2016-06-10T12:55:00.655Z,1.49
2016-06-10T12:56:00.189Z,2.18
2016-06-10T12:57:00.505Z,1.68
2016-06-10T12:58:00.133Z,2.18
2016-06-10T12:59:00.590Z,2.48